createdAt,value
2019-03-05T00:02:42.888Z,6.20
2019-03-05T00:07:43.983Z,5.60
2019-03-05T00:12:45.076Z,5.70
2019-03-05T00:17:46.345Z,6.30
2019-03-05T00:22:47.871Z,5.80
2019-03-05T00:27:52.792Z,5.80
2019-03-05T00:33:18.698Z,6.00
2019-03-05T00:38:44.300Z,5.90
2019-03-05T00:44:04.415Z,5.70
2019-03-05T00:49:15.259Z,5.70
2019-03-05T00:54:44.829Z,5.90
2019-03-05T00:59:52.528Z,5.90
2019-03-05T01:05:00.358Z,5.90
2019-03-05T01:10:01.816Z,5.80
2019-03-05T01:15:05.806Z,6.70
2019-03-05T01:20:09.415Z,5.80
2019-03-05T01:25:28.931Z,5.90
2019-03-05T01:30:46.081Z,6.00
2019-03-05T01:35:52.311Z,6.00
2019-03-05T01:40:55.312Z,6.00
2019-03-05T01:45:56.408Z,6.60
2019-03-05T01:50:57.514Z,5.80
2019-03-05T01:55:58.612Z,5.70
2019-03-05T02:00:59.903Z,5.70
2019-03-05T02:06:01.020Z,5.80
2019-03-05T02:11:03.688Z,5.80
2019-03-05T02:16:05.044Z,6.00
2019-03-05T02:21:06.354Z,5.90
2019-03-05T02:26:17.071Z,5.80
2019-03-05T02:31:30.925Z,5.70
2019-03-05T02:36:54.022Z,5.70
2019-03-05T02:42:21.393Z,5.60
2019-03-05T02:47:55.483Z,5.70
2019-03-05T02:53:15.958Z,5.80
2019-03-05T02:58:16.843Z,5.80
2019-03-05T03:03:19.854Z,5.80
2019-03-05T03:08:20.947Z,5.80
2019-03-05T03:13:22.072Z,6.50
2019-03-05T03:18:23.177Z,6.10
2019-03-05T03:23:24.281Z,6.10
2019-03-05T03:28:25.381Z,6.00
2019-03-05T03:33:26.482Z,5.80
2019-03-05T03:38:27.689Z,6.50
2019-03-05T03:43:28.888Z,5.80
2019-03-05T03:48:29.978Z,5.50
2019-03-05T03:53:31.115Z,5.50
2019-03-05T03:58:32.717Z,5.50
2019-03-05T04:03:34.012Z,5.50
2019-03-05T04:08:35.222Z,6.30
2019-03-05T04:13:36.341Z,5.70
2019-03-05T04:18:37.434Z,5.70
2019-03-05T04:23:38.627Z,5.30
2019-03-05T04:28:39.742Z,5.50
2019-03-05T04:33:40.839Z,5.60
2019-03-05T04:38:41.919Z,5.60
2019-03-05T04:43:43.018Z,6.60
2019-03-05T04:48:46.023Z,6.20
2019-03-05T04:53:47.145Z,5.60
2019-03-05T04:58:48.235Z,5.60
2019-03-05T05:03:49.791Z,5.70
2019-03-05T05:08:50.871Z,5.60
2019-03-05T05:13:51.959Z,5.60
2019-03-05T05:18:53.066Z,5.50
2019-03-05T05:23:54.159Z,5.50
2019-03-05T05:28:55.355Z,6.30
2019-03-05T05:33:56.448Z,5.40
2019-03-05T05:38:57.548Z,5.30
2019-03-05T05:43:58.634Z,5.40
2019-03-05T05:48:59.747Z,5.30
2019-03-05T05:54:00.835Z,5.30
2019-03-05T05:59:01.927Z,5.30
2019-03-05T06:04:03.125Z,5.30
2019-03-05T06:09:05.118Z,3.10
2019-03-05T06:14:06.223Z,5.80
2019-03-05T06:19:07.328Z,5.20
2019-03-05T06:24:08.419Z,5.20
2019-03-05T06:29:09.515Z,5.30
2019-03-05T06:34:10.608Z,5.90
2019-03-05T06:39:11.713Z,5.40
2019-03-05T06:44:12.804Z,5.60
2019-03-05T06:49:13.915Z,6.50
2019-03-05T06:54:15.007Z,5.70
2019-03-05T06:59:16.112Z,5.80
2019-03-05T07:04:17.232Z,6.00
2019-03-05T07:09:50.141Z,6.60
2019-03-05T07:15:00.821Z,6.40
2019-03-05T07:20:08.623Z,6.60
2019-03-05T07:25:09.734Z,6.70
2019-03-05T07:30:14.136Z,6.80
2019-03-05T07:35:16.652Z,6.90
2019-03-05T07:40:17.858Z,7.00
2019-03-05T07:45:19.065Z,6.90
2019-03-05T07:50:20.285Z,6.80
2019-03-05T07:55:21.474Z,7.00
2019-03-05T08:00:22.701Z,7.40
2019-03-05T08:05:23.767Z,7.70
2019-03-05T08:10:27.575Z,8.10
2019-03-05T08:16:02.533Z,8.50
2019-03-05T08:21:00.392Z,7.80
2019-03-05T08:26:01.609Z,8.00
2019-03-05T08:31:02.791Z,7.80
2019-03-05T08:36:03.899Z,7.90
2019-03-05T08:41:05.028Z,7.50
2019-03-05T08:46:06.267Z,8.20
2019-03-05T08:51:07.395Z,8.70
2019-03-05T08:56:08.688Z,8.40
2019-03-05T09:01:10.048Z,8.20
2019-03-05T09:06:11.159Z,8.10
2019-03-05T09:11:12.252Z,8.50
2019-03-05T09:16:13.347Z,9.00
2019-03-05T09:21:14.452Z,9.50
2019-03-05T09:26:15.544Z,10.00
2019-03-05T09:31:16.735Z,10.90
2019-03-05T09:36:17.850Z,10.00
2019-03-05T09:41:18.942Z,10.70
2019-03-05T09:46:20.036Z,11.10
2019-03-05T09:51:21.259Z,12.10
2019-03-05T09:56:22.379Z,12.30
2019-03-05T10:01:24.513Z,12.40
2019-03-05T10:06:25.636Z,12.00
2019-03-05T10:11:26.754Z,11.40
2019-03-05T10:16:27.971Z,11.90
2019-03-05T10:21:29.178Z,11.60
2019-03-05T10:26:30.506Z,11.60
2019-03-05T10:31:33.302Z,11.30
2019-03-05T10:36:34.830Z,10.90
2019-03-05T10:41:35.930Z,11.30
2019-03-05T10:46:37.028Z,11.50
2019-03-05T10:51:38.140Z,12.30
2019-03-05T10:56:39.255Z,12.00
2019-03-05T11:01:40.663Z,11.30
2019-03-05T11:06:41.992Z,11.20
2019-03-05T11:11:43.324Z,10.70
2019-03-05T11:16:44.419Z,10.90
2019-03-05T11:21:45.516Z,11.60
2019-03-05T11:26:46.886Z,12.30
2019-03-05T11:31:48.027Z,11.80
2019-03-05T11:36:49.127Z,11.20
2019-03-05T11:41:50.238Z,10.90
2019-03-05T11:46:51.448Z,10.40
2019-03-05T11:51:52.563Z,10.30
2019-03-05T11:56:53.873Z,10.10
2019-03-05T12:01:55.071Z,10.00
2019-03-05T12:06:56.182Z,10.20
2019-03-05T12:11:57.275Z,10.60
2019-03-05T12:16:58.370Z,10.80
2019-03-05T12:21:59.455Z,10.50
2019-03-05T12:27:00.560Z,9.90
2019-03-05T12:32:01.664Z,9.80
2019-03-05T12:37:02.765Z,9.60
2019-03-05T12:42:03.977Z,9.60
2019-03-05T12:47:05.187Z,9.70
2019-03-05T12:52:07.310Z,10.20
2019-03-05T12:57:08.415Z,10.70
2019-03-05T13:02:09.509Z,10.50
2019-03-05T13:07:14.064Z,10.10
2019-03-05T13:12:13.735Z,10.30
2019-03-05T13:17:14.851Z,10.30
2019-03-05T13:22:15.966Z,9.80
2019-03-05T13:27:18.792Z,9.50
2019-03-05T13:32:20.705Z,9.60
2019-03-05T13:37:24.947Z,9.60
2019-03-05T13:42:29.117Z,9.40
2019-03-05T13:47:28.915Z,9.40
2019-03-05T13:52:36.071Z,9.20
2019-03-05T13:57:51.448Z,9.20
2019-03-05T14:02:59.698Z,9.20
2019-03-05T14:08:13.807Z,9.00
2019-03-05T14:13:15.112Z,8.90
2019-03-05T14:18:16.502Z,8.90
2019-03-05T14:23:17.731Z,8.90
2019-03-05T14:28:19.684Z,8.90
2019-03-05T14:33:21.160Z,8.80
2019-03-05T14:38:22.419Z,8.50
2019-03-05T14:43:23.932Z,8.30
2019-03-05T14:48:25.825Z,8.20
2019-03-05T14:53:27.043Z,8.10
2019-03-05T14:58:28.149Z,8.00
2019-03-05T15:03:29.250Z,8.00
2019-03-05T15:08:30.547Z,7.90
2019-03-05T15:13:31.707Z,7.90
2019-03-05T15:18:32.906Z,7.80
2019-03-05T15:23:34.130Z,7.80
2019-03-05T15:28:35.341Z,7.80
2019-03-05T15:33:36.688Z,7.70
2019-03-05T15:38:38.096Z,7.60
2019-03-05T15:43:39.364Z,7.50
2019-03-05T15:48:40.501Z,7.20
2019-03-05T15:53:41.712Z,7.10
2019-03-05T15:58:42.899Z,7.00
2019-03-05T16:03:44.003Z,7.10
2019-03-05T16:08:45.213Z,6.70
2019-03-05T16:13:46.340Z,6.60
2019-03-05T16:18:47.479Z,6.50
2019-03-05T16:23:48.669Z,6.40
2019-03-05T16:28:49.780Z,6.30
2019-03-05T16:33:55.788Z,6.70
2019-03-05T16:39:15.462Z,6.10
2019-03-05T16:44:18.571Z,5.90
2019-03-05T16:49:27.631Z,6.90
2019-03-05T16:54:49.125Z,6.90
2019-03-05T16:59:53.283Z,5.80
2019-03-05T17:04:56.666Z,5.80
2019-03-05T17:10:15.197Z,5.80
2019-03-05T17:15:16.351Z,5.70
2019-03-05T17:20:17.737Z,6.80
2019-03-05T17:25:20.772Z,5.70
2019-03-05T17:30:21.874Z,6.20
2019-03-05T17:35:23.071Z,5.60
2019-03-05T17:40:24.472Z,5.50
2019-03-05T17:45:25.735Z,6.40
2019-03-05T17:50:27.278Z,5.50
2019-03-05T17:55:28.389Z,5.20
2019-03-05T18:00:34.198Z,5.10
2019-03-05T18:05:35.424Z,5.10
2019-03-05T18:10:36.675Z,5.90
2019-03-05T18:15:37.825Z,4.90
2019-03-05T18:20:39.153Z,4.90
2019-03-05T18:25:40.288Z,4.90
2019-03-05T18:30:41.592Z,4.90
2019-03-05T18:35:42.814Z,4.90
2019-03-05T18:40:44.079Z,4.90
2019-03-05T18:45:45.216Z,5.00
2019-03-05T18:50:46.418Z,5.10
2019-03-05T18:55:47.977Z,5.00
2019-03-05T19:00:49.139Z,5.20
2019-03-05T19:05:50.306Z,5.20
2019-03-05T19:10:52.556Z,5.20
2019-03-05T19:15:54.023Z,5.10
2019-03-05T19:20:55.111Z,5.20
2019-03-05T19:25:56.383Z,5.20
2019-03-05T19:30:57.607Z,5.20
2019-03-05T19:35:58.821Z,5.10
2019-03-05T19:41:00.281Z,5.10
2019-03-05T19:46:01.436Z,5.10
2019-03-05T19:51:03.198Z,5.10
2019-03-05T19:56:04.659Z,5.00
2019-03-05T20:01:13.983Z,5.00
2019-03-05T20:06:15.400Z,5.00
2019-03-05T20:11:17.079Z,5.50
2019-03-05T20:16:18.436Z,4.90
2019-03-05T20:21:19.812Z,4.80
2019-03-05T20:26:21.079Z,4.70
2019-03-05T20:31:22.190Z,5.50
2019-03-05T20:36:23.440Z,4.70
2019-03-05T20:41:24.672Z,4.40
2019-03-05T20:46:25.933Z,4.40
2019-03-05T20:51:27.339Z,4.50
2019-03-05T20:56:28.865Z,4.50
2019-03-05T21:01:30.169Z,4.60
2019-03-05T21:06:31.414Z,4.60
2019-03-05T21:11:32.553Z,5.10
2019-03-05T21:16:33.878Z,4.50
2019-03-05T21:21:35.063Z,4.50
2019-03-05T21:26:36.171Z,4.50
2019-03-05T21:31:37.269Z,5.40
2019-03-05T21:36:38.395Z,4.50
2019-03-05T21:41:39.504Z,4.50
2019-03-05T21:46:40.611Z,4.70
2019-03-05T21:51:42.040Z,4.90
2019-03-05T21:56:43.181Z,4.70
2019-03-05T22:01:44.311Z,4.80
2019-03-05T22:06:45.420Z,4.70
2019-03-05T22:11:46.539Z,4.70
2019-03-05T22:16:47.706Z,4.80
2019-03-05T22:21:48.831Z,4.90
2019-03-05T22:26:50.053Z,5.10
2019-03-05T22:31:51.161Z,5.20
2019-03-05T22:36:52.266Z,5.10
2019-03-05T22:41:53.513Z,4.90
2019-03-05T22:46:54.729Z,5.00
2019-03-05T22:51:55.848Z,5.10
2019-03-05T22:56:57.060Z,5.30
2019-03-05T23:01:58.673Z,5.30
2019-03-05T23:06:59.891Z,5.40
2019-03-05T23:12:00.988Z,5.80
2019-03-05T23:17:02.408Z,5.30
2019-03-05T23:22:03.636Z,5.90
2019-03-05T23:27:05.761Z,5.30
2019-03-05T23:32:06.827Z,5.30
2019-03-05T23:37:07.924Z,5.80
2019-03-05T23:42:09.115Z,5.10
2019-03-05T23:47:10.230Z,4.90
2019-03-05T23:52:11.343Z,5.40
2019-03-05T23:57:12.462Z,4.90
